Ellenburg Center, New York
Current Conditions -  °F | °C
As of 8:53 AM on Friday 24 Oct 2014 (Local Time) from KPBG Reporting Station
Overcast Overcast  
Wind Chill:   Ceiling: 2000
Heat Index:   Visibility: 9mi
Dew Point:   Wind: 8mph
Humidity: 93%   Direction: 330°NNW
Pressure: 29.88"   Gusts: NA
Location:  44.86°N, 73.9°W
Report Text: KPBG 241253Z AUTO 33007KT 9SM OVC020 07/06 A2988 RMK AO2 SLP120 T00670056
Loading
Personal Weather Stations






























Interactive Weather Map
Tropical Storm Tracking
New forecast layout! Learn more

10-Day Weather Forecast

Advertisements
Track Severe Weather on mobile